sensor_id;sensor_type;location;lat;lon;timestamp;temperature;humidity
41944;DHT22;27636;52.610;13.244;2022-11-20T00:01:48;0.70;99.90
41944;DHT22;27636;52.610;13.244;2022-11-20T00:06:53;0.60;99.90
41944;DHT22;27636;52.610;13.244;2022-11-20T00:11:56;0.70;99.90
41944;DHT22;27636;52.610;13.244;2022-11-20T00:16:59;0.60;99.90
41944;DHT22;27636;52.610;13.244;2022-11-20T00:22:03;0.70;99.90
41944;DHT22;27636;52.610;13.244;2022-11-20T00:27:06;0.70;99.90
41944;DHT22;27636;52.610;13.244;2022-11-20T00:32:10;0.60;99.90
41944;DHT22;27636;52.610;13.244;2022-11-20T00:37:14;0.60;99.90
41944;DHT22;27636;52.610;13.244;2022-11-20T00:42:17;0.50;99.90
41944;DHT22;27636;52.610;13.244;2022-11-20T00:47:20;0.50;99.90
41944;DHT22;27636;52.610;13.244;2022-11-20T00:52:25;0.50;99.90
41944;DHT22;27636;52.610;13.244;2022-11-20T00:57:28;0.40;99.90
41944;DHT22;27636;52.610;13.244;2022-11-20T01:02:32;0.50;99.90
41944;DHT22;27636;52.610;13.244;2022-11-20T01:07:36;0.50;99.90
41944;DHT22;27636;52.610;13.244;2022-11-20T01:12:39;0.50;99.90
41944;DHT22;27636;52.610;13.244;2022-11-20T01:17:43;0.60;99.90
41944;DHT22;27636;52.610;13.244;2022-11-20T01:22:47;0.50;99.90
41944;DHT22;27636;52.610;13.244;2022-11-20T01:27:50;0.50;99.90
41944;DHT22;27636;52.610;13.244;2022-11-20T01:32:55;0.50;99.90
41944;DHT22;27636;52.610;13.244;2022-11-20T01:37:59;0.50;99.90
41944;DHT22;27636;52.610;13.244;2022-11-20T01:43:12;0.40;99.90
41944;DHT22;27636;52.610;13.244;2022-11-20T01:48:28;0.50;99.90
41944;DHT22;27636;52.610;13.244;2022-11-20T01:53:36;0.40;99.90
41944;DHT22;27636;52.610;13.244;2022-11-20T01:58:43;0.40;99.90
41944;DHT22;27636;52.610;13.244;2022-11-20T02:03:49;0.50;99.90
41944;DHT22;27636;52.610;13.244;2022-11-20T02:08:55;0.30;99.90
41944;DHT22;27636;52.610;13.244;2022-11-20T02:13:58;0.50;99.90
41944;DHT22;27636;52.610;13.244;2022-11-20T02:19:02;0.50;99.90
41944;DHT22;27636;52.610;13.244;2022-11-20T02:24:13;0.50;99.90
41944;DHT22;27636;52.610;13.244;2022-11-20T02:29:21;0.40;99.90
41944;DHT22;27636;52.610;13.244;2022-11-20T02:34:26;0.50;99.90
41944;DHT22;27636;52.610;13.244;2022-11-20T02:39:31;0.40;99.90
41944;DHT22;27636;52.610;13.244;2022-11-20T02:44:34;0.40;99.90
41944;DHT22;27636;52.610;13.244;2022-11-20T02:49:37;0.30;99.90
41944;DHT22;27636;52.610;13.244;2022-11-20T02:54:42;0.30;99.90
41944;DHT22;27636;52.610;13.244;2022-11-20T02:59:45;0.20;99.90
41944;DHT22;27636;52.610;13.244;2022-11-20T03:04:48;0.20;99.90
41944;DHT22;27636;52.610;13.244;2022-11-20T03:09:53;0.20;99.90
41944;DHT22;27636;52.610;13.244;2022-11-20T03:14:56;0.20;99.90
41944;DHT22;27636;52.610;13.244;2022-11-20T03:19:59;0.20;99.90
41944;DHT22;27636;52.610;13.244;2022-11-20T03:25:05;0.30;99.90
41944;DHT22;27636;52.610;13.244;2022-11-20T03:30:09;0.20;99.90
41944;DHT22;27636;52.610;13.244;2022-11-20T03:35:13;0.20;99.90
41944;DHT22;27636;52.610;13.244;2022-11-20T03:40:17;0.30;99.90
41944;DHT22;27636;52.610;13.244;2022-11-20T03:45:21;0.20;99.90
41944;DHT22;27636;52.610;13.244;2022-11-20T03:50:24;0.10;99.90
41944;DHT22;27636;52.610;13.244;2022-11-20T03:55:28;0.10;99.90
41944;DHT22;27636;52.610;13.244;2022-11-20T04:00:31;0.20;99.90
41944;DHT22;27636;52.610;13.244;2022-11-20T04:05:34;0.20;99.90
41944;DHT22;27636;52.610;13.244;2022-11-20T04:10:39;0.10;99.90
41944;DHT22;27636;52.610;13.244;2022-11-20T04:15:42;-0.10;99.90
41944;DHT22;27636;52.610;13.244;2022-11-20T04:20:45;0.00;99.90
41944;DHT22;27636;52.610;13.244;2022-11-20T04:25:50;-0.10;99.90
41944;DHT22;27636;52.610;13.244;2022-11-20T04:30:53;-0.10;99.90
41944;DHT22;27636;52.610;13.244;2022-11-20T04:36:00;-0.20;99.90
41944;DHT22;27636;52.610;13.244;2022-11-20T04:41:06;-0.20;99.90
41944;DHT22;27636;52.610;13.244;2022-11-20T04:46:10;-0.30;99.90
41944;DHT22;27636;52.610;13.244;2022-11-20T04:51:13;-0.40;99.90
41944;DHT22;27636;52.610;13.244;2022-11-20T04:56:18;-0.40;99.90
41944;DHT22;27636;52.610;13.244;2022-11-20T05:01:23;-0.30;99.90
41944;DHT22;27636;52.610;13.244;2022-11-20T05:06:27;-0.40;99.90
41944;DHT22;27636;52.610;13.244;2022-11-20T05:11:32;-0.20;99.90
41944;DHT22;27636;52.610;13.244;2022-11-20T05:16:35;-0.30;99.90
41944;DHT22;27636;52.610;13.244;2022-11-20T05:21:38;-0.20;99.90
41944;DHT22;27636;52.610;13.244;2022-11-20T05:26:43;-0.20;99.90
41944;DHT22;27636;52.610;13.244;2022-11-20T05:31:46;-0.10;99.90
41944;DHT22;27636;52.610;13.244;2022-11-20T05:36:49;-0.30;99.90
41944;DHT22;27636;52.610;13.244;2022-11-20T05:41:54;-0.20;99.90
41944;DHT22;27636;52.610;13.244;2022-11-20T05:47:15;-0.20;99.90
41944;DHT22;27636;52.610;13.244;2022-11-20T05:52:19;-0.20;99.90
41944;DHT22;27636;52.610;13.244;2022-11-20T05:57:23;-0.30;99.90
41944;DHT22;27636;52.610;13.244;2022-11-20T06:02:27;-0.30;99.90
41944;DHT22;27636;52.610;13.244;2022-11-20T06:07:30;-0.40;99.90
41944;DHT22;27636;52.610;13.244;2022-11-20T06:12:34;-0.40;99.90
41944;DHT22;27636;52.610;13.244;2022-11-20T06:17:37;-0.40;99.90
41944;DHT22;27636;52.610;13.244;2022-11-20T06:22:40;-0.30;99.90
41944;DHT22;27636;52.610;13.244;2022-11-20T06:27:45;-0.40;99.90
41944;DHT22;27636;52.610;13.244;2022-11-20T06:32:48;-0.20;99.90
41944;DHT22;27636;52.610;13.244;2022-11-20T06:37:51;-0.30;99.90
41944;DHT22;27636;52.610;13.244;2022-11-20T06:42:56;-0.30;99.90
41944;DHT22;27636;52.610;13.244;2022-11-20T06:47:59;-0.20;99.90
41944;DHT22;27636;52.610;13.244;2022-11-20T06:53:04;-0.20;99.90
41944;DHT22;27636;52.610;13.244;2022-11-20T06:58:09;-0.10;99.90
41944;DHT22;27636;52.610;13.244;2022-11-20T07:03:12;-0.10;99.90
41944;DHT22;27636;52.610;13.244;2022-11-20T07:08:16;-0.10;99.90
41944;DHT22;27636;52.610;13.244;2022-11-20T07:13:20;0.10;99.90
41944;DHT22;27636;52.610;13.244;2022-11-20T07:18:24;0.10;99.90
41944;DHT22;27636;52.610;13.244;2022-11-20T07:23:27;0.20;99.90
41944;DHT22;27636;52.610;13.244;2022-11-20T07:28:31;0.30;99.90
41944;DHT22;27636;52.610;13.244;2022-11-20T07:33:35;0.30;99.90
41944;DHT22;27636;52.610;13.244;2022-11-20T07:38:38;0.40;99.90
41944;DHT22;27636;52.610;13.244;2022-11-20T07:43:42;0.40;99.90
41944;DHT22;27636;52.610;13.244;2022-11-20T07:48:46;0.50;99.90
41944;DHT22;27636;52.610;13.244;2022-11-20T07:53:53;0.60;99.90
41944;DHT22;27636;52.610;13.244;2022-11-20T07:58:57;0.80;99.90
41944;DHT22;27636;52.610;13.244;2022-11-20T08:04:00;0.80;99.90
41944;DHT22;27636;52.610;13.244;2022-11-20T08:09:03;0.90;99.90
41944;DHT22;27636;52.610;13.244;2022-11-20T08:14:08;1.00;99.90
41944;DHT22;27636;52.610;13.244;2022-11-20T08:19:17;1.10;99.90
41944;DHT22;27636;52.610;13.244;2022-11-20T08:24:21;1.00;99.90
41944;DHT22;27636;52.610;13.244;2022-11-20T08:29:25;1.10;99.90
41944;DHT22;27636;52.610;13.244;2022-11-20T08:34:29;1.20;99.90
41944;DHT22;27636;52.610;13.244;2022-11-20T08:39:32;1.30;99.90
41944;DHT22;27636;52.610;13.244;2022-11-20T08:44:36;1.60;99.90
41944;DHT22;27636;52.610;13.244;2022-11-20T08:49:39;1.60;99.90
41944;DHT22;27636;52.610;13.244;2022-11-20T08:54:42;1.50;99.90
41944;DHT22;27636;52.610;13.244;2022-11-20T08:59:47;1.40;99.90
41944;DHT22;27636;52.610;13.244;2022-11-20T09:05:08;1.50;99.90
41944;DHT22;27636;52.610;13.244;2022-11-20T09:10:11;1.60;99.90
41944;DHT22;27636;52.610;13.244;2022-11-20T09:15:32;1.50;99.90
41944;DHT22;27636;52.610;13.244;2022-11-20T09:20:35;1.60;99.90
41944;DHT22;27636;52.610;13.244;2022-11-20T09:25:39;1.80;99.90
41944;DHT22;27636;52.610;13.244;2022-11-20T09:30:43;1.90;99.90
41944;DHT22;27636;52.610;13.244;2022-11-20T09:35:46;2.10;99.90
41944;DHT22;27636;52.610;13.244;2022-11-20T09:40:56;2.10;99.90
41944;DHT22;27636;52.610;13.244;2022-11-20T09:46:07;2.10;99.90
41944;DHT22;27636;52.610;13.244;2022-11-20T09:51:16;2.20;99.90
41944;DHT22;27636;52.610;13.244;2022-11-20T09:56:25;2.40;99.90
41944;DHT22;27636;52.610;13.244;2022-11-20T10:01:32;2.10;99.90
41944;DHT22;27636;52.610;13.244;2022-11-20T10:06:41;2.30;99.90
41944;DHT22;27636;52.610;13.244;2022-11-20T10:11:51;2.40;99.90
41944;DHT22;27636;52.610;13.244;2022-11-20T10:17:03;2.50;99.90
41944;DHT22;27636;52.610;13.244;2022-11-20T10:22:17;2.40;99.90
41944;DHT22;27636;52.610;13.244;2022-11-20T10:27:41;2.20;99.90
41944;DHT22;27636;52.610;13.244;2022-11-20T10:32:52;2.40;99.90
41944;DHT22;27636;52.610;13.244;2022-11-20T10:37:59;2.80;99.90
41944;DHT22;27636;52.610;13.244;2022-11-20T10:43:09;2.90;99.90
41944;DHT22;27636;52.610;13.244;2022-11-20T10:48:20;3.00;99.90
41944;DHT22;27636;52.610;13.244;2022-11-20T10:53:37;3.00;99.90
41944;DHT22;27636;52.610;13.244;2022-11-20T10:58:47;2.80;99.90
41944;DHT22;27636;52.610;13.244;2022-11-20T11:03:55;2.80;99.90
41944;DHT22;27636;52.610;13.244;2022-11-20T11:09:01;2.40;99.90
41944;DHT22;27636;52.610;13.244;2022-11-20T11:14:06;2.60;99.90
41944;DHT22;27636;52.610;13.244;2022-11-20T11:19:13;2.50;99.90
41944;DHT22;27636;52.610;13.244;2022-11-20T11:24:20;2.40;99.90
41944;DHT22;27636;52.610;13.244;2022-11-20T11:29:44;2.20;99.90
41944;DHT22;27636;52.610;13.244;2022-11-20T11:35:00;1.90;99.90
41944;DHT22;27636;52.610;13.244;2022-11-20T11:40:05;1.80;99.90
41944;DHT22;27636;52.610;13.244;2022-11-20T11:45:27;2.00;99.90
41944;DHT22;27636;52.610;13.244;2022-11-20T11:50:33;1.90;99.90
41944;DHT22;27636;52.610;13.244;2022-11-20T11:55:38;1.90;99.90
41944;DHT22;27636;52.610;13.244;2022-11-20T12:00:50;2.10;99.90
41944;DHT22;27636;52.610;13.244;2022-11-20T12:05:58;2.00;99.90
41944;DHT22;27636;52.610;13.244;2022-11-20T12:11:04;2.00;99.90
41944;DHT22;27636;52.610;13.244;2022-11-20T12:16:12;2.10;99.90
41944;DHT22;27636;52.610;13.244;2022-11-20T12:21:28;2.30;99.90
41944;DHT22;27636;52.610;13.244;2022-11-20T12:26:45;2.30;99.90
41944;DHT22;27636;52.610;13.244;2022-11-20T12:32:00;2.30;99.90
41944;DHT22;27636;52.610;13.244;2022-11-20T12:37:18;2.00;99.90
41944;DHT22;27636;52.610;13.244;2022-11-20T12:42:56;2.00;99.90
41944;DHT22;27636;52.610;13.244;2022-11-20T12:48:37;2.00;99.90
41944;DHT22;27636;52.610;13.244;2022-11-20T12:53:59;2.60;99.90
41944;DHT22;27636;52.610;13.244;2022-11-20T12:59:20;3.00;99.90
41944;DHT22;27636;52.610;13.244;2022-11-20T13:04:44;3.30;99.90
41944;DHT22;27636;52.610;13.244;2022-11-20T13:09:53;3.20;99.90
41944;DHT22;27636;52.610;13.244;2022-11-20T13:15:02;2.70;99.90
41944;DHT22;27636;52.610;13.244;2022-11-20T13:20:14;2.00;99.90
41944;DHT22;27636;52.610;13.244;2022-11-20T13:25:27;1.70;99.90
41944;DHT22;27636;52.610;13.244;2022-11-20T13:30:31;1.80;99.90
41944;DHT22;27636;52.610;13.244;2022-11-20T13:35:36;2.00;99.90
41944;DHT22;27636;52.610;13.244;2022-11-20T13:40:52;2.10;99.90
41944;DHT22;27636;52.610;13.244;2022-11-20T13:45:59;2.20;99.90
41944;DHT22;27636;52.610;13.244;2022-11-20T13:51:09;2.00;99.90
41944;DHT22;27636;52.610;13.244;2022-11-20T13:56:23;2.00;99.90
41944;DHT22;27636;52.610;13.244;2022-11-20T14:01:30;1.80;99.90
41944;DHT22;27636;52.610;13.244;2022-11-20T14:06:41;1.80;99.90
41944;DHT22;27636;52.610;13.244;2022-11-20T14:11:47;1.80;99.90
41944;DHT22;27636;52.610;13.244;2022-11-20T14:16:51;1.60;99.90
41944;DHT22;27636;52.610;13.244;2022-11-20T14:22:09;1.60;99.90
41944;DHT22;27636;52.610;13.244;2022-11-20T14:27:16;1.50;99.90
41944;DHT22;27636;52.610;13.244;2022-11-20T14:32:24;1.50;99.90
41944;DHT22;27636;52.610;13.244;2022-11-20T14:37:33;1.40;99.90
41944;DHT22;27636;52.610;13.244;2022-11-20T14:42:43;1.30;99.90
41944;DHT22;27636;52.610;13.244;2022-11-20T14:47:48;1.30;99.90
41944;DHT22;27636;52.610;13.244;2022-11-20T14:52:53;1.30;99.90
41944;DHT22;27636;52.610;13.244;2022-11-20T14:57:59;1.20;99.90
41944;DHT22;27636;52.610;13.244;2022-11-20T15:03:02;1.30;99.90
41944;DHT22;27636;52.610;13.244;2022-11-20T15:08:18;1.20;99.90
41944;DHT22;27636;52.610;13.244;2022-11-20T15:13:29;1.20;99.90
41944;DHT22;27636;52.610;13.244;2022-11-20T15:18:37;1.20;99.90
41944;DHT22;27636;52.610;13.244;2022-11-20T15:23:41;1.20;99.90
41944;DHT22;27636;52.610;13.244;2022-11-20T15:28:47;1.10;99.90
41944;DHT22;27636;52.610;13.244;2022-11-20T15:33:53;1.10;99.90
41944;DHT22;27636;52.610;13.244;2022-11-20T15:38:56;1.00;99.90
41944;DHT22;27636;52.610;13.244;2022-11-20T15:44:00;1.00;99.90
41944;DHT22;27636;52.610;13.244;2022-11-20T15:49:05;0.80;99.90
41944;DHT22;27636;52.610;13.244;2022-11-20T15:54:10;0.80;99.90
41944;DHT22;27636;52.610;13.244;2022-11-20T15:59:16;0.50;99.90
41944;DHT22;27636;52.610;13.244;2022-11-20T16:04:19;0.00;99.90
41944;DHT22;27636;52.610;13.244;2022-11-20T16:09:22;-0.30;99.90
41944;DHT22;27636;52.610;13.244;2022-11-20T16:14:27;-0.50;99.90
41944;DHT22;27636;52.610;13.244;2022-11-20T16:19:52;-0.60;99.90
41944;DHT22;27636;52.610;13.244;2022-11-20T16:24:56;-0.60;99.90
41944;DHT22;27636;52.610;13.244;2022-11-20T16:30:01;-0.60;99.90
41944;DHT22;27636;52.610;13.244;2022-11-20T16:35:06;-0.40;99.90
41944;DHT22;27636;52.610;13.244;2022-11-20T16:40:10;-0.20;99.90
41944;DHT22;27636;52.610;13.244;2022-11-20T16:45:15;-0.10;99.90
41944;DHT22;27636;52.610;13.244;2022-11-20T16:50:27;0.10;99.90
41944;DHT22;27636;52.610;13.244;2022-11-20T16:55:30;0.10;99.90
41944;DHT22;27636;52.610;13.244;2022-11-20T17:00:36;0.30;99.90
41944;DHT22;27636;52.610;13.244;2022-11-20T17:05:39;0.30;99.90
41944;DHT22;27636;52.610;13.244;2022-11-20T17:10:43;0.30;99.90
41944;DHT22;27636;52.610;13.244;2022-11-20T17:15:47;0.30;99.90
41944;DHT22;27636;52.610;13.244;2022-11-20T17:20:51;0.40;99.90
41944;DHT22;27636;52.610;13.244;2022-11-20T17:26:00;0.40;99.90
41944;DHT22;27636;52.610;13.244;2022-11-20T17:31:07;0.40;99.90
41944;DHT22;27636;52.610;13.244;2022-11-20T17:36:13;0.40;99.90
41944;DHT22;27636;52.610;13.244;2022-11-20T17:41:18;0.30;99.90
41944;DHT22;27636;52.610;13.244;2022-11-20T17:46:26;0.50;99.90
41944;DHT22;27636;52.610;13.244;2022-11-20T17:51:31;0.50;99.90
41944;DHT22;27636;52.610;13.244;2022-11-20T17:56:36;0.50;99.90
41944;DHT22;27636;52.610;13.244;2022-11-20T18:02:00;0.50;99.90
41944;DHT22;27636;52.610;13.244;2022-11-20T18:07:06;0.50;99.90
41944;DHT22;27636;52.610;13.244;2022-11-20T18:12:09;0.50;99.90
41944;DHT22;27636;52.610;13.244;2022-11-20T18:17:15;0.50;99.90
41944;DHT22;27636;52.610;13.244;2022-11-20T18:22:20;0.40;99.90
41944;DHT22;27636;52.610;13.244;2022-11-20T18:27:24;0.50;99.90
41944;DHT22;27636;52.610;13.244;2022-11-20T18:32:33;0.40;99.90
41944;DHT22;27636;52.610;13.244;2022-11-20T18:37:38;0.40;99.90
41944;DHT22;27636;52.610;13.244;2022-11-20T18:42:42;0.40;99.90
41944;DHT22;27636;52.610;13.244;2022-11-20T18:48:05;0.50;99.90
41944;DHT22;27636;52.610;13.244;2022-11-20T18:53:08;0.40;99.90
41944;DHT22;27636;52.610;13.244;2022-11-20T18:58:12;0.30;99.90
41944;DHT22;27636;52.610;13.244;2022-11-20T19:03:17;-0.20;99.90
41944;DHT22;27636;52.610;13.244;2022-11-20T19:08:20;-0.30;99.90
41944;DHT22;27636;52.610;13.244;2022-11-20T19:13:24;-0.50;99.90
41944;DHT22;27636;52.610;13.244;2022-11-20T19:18:29;-0.30;99.90
41944;DHT22;27636;52.610;13.244;2022-11-20T19:23:32;-0.40;99.90
41944;DHT22;27636;52.610;13.244;2022-11-20T19:28:36;-0.40;99.90
41944;DHT22;27636;52.610;13.244;2022-11-20T19:33:42;-0.40;99.90
41944;DHT22;27636;52.610;13.244;2022-11-20T19:38:46;-0.20;99.90
41944;DHT22;27636;52.610;13.244;2022-11-20T19:43:50;-0.20;99.90
41944;DHT22;27636;52.610;13.244;2022-11-20T19:48:55;-0.20;99.90
41944;DHT22;27636;52.610;13.244;2022-11-20T19:53:59;-0.20;99.90
41944;DHT22;27636;52.610;13.244;2022-11-20T19:59:02;-0.20;99.90
41944;DHT22;27636;52.610;13.244;2022-11-20T20:04:07;-0.30;99.90
41944;DHT22;27636;52.610;13.244;2022-11-20T20:09:11;-0.40;99.90
41944;DHT22;27636;52.610;13.244;2022-11-20T20:14:15;-0.50;99.90
41944;DHT22;27636;52.610;13.244;2022-11-20T20:19:20;-0.80;99.90
41944;DHT22;27636;52.610;13.244;2022-11-20T20:24:23;-1.00;99.90
41944;DHT22;27636;52.610;13.244;2022-11-20T20:29:26;-1.30;99.90
41944;DHT22;27636;52.610;13.244;2022-11-20T20:34:31;-1.40;99.90
41944;DHT22;27636;52.610;13.244;2022-11-20T20:39:34;-1.50;99.90
41944;DHT22;27636;52.610;13.244;2022-11-20T20:44:37;-1.30;99.90
41944;DHT22;27636;52.610;13.244;2022-11-20T20:50:00;-1.30;99.90
41944;DHT22;27636;52.610;13.244;2022-11-20T20:55:04;-1.50;99.90
41944;DHT22;27636;52.610;13.244;2022-11-20T21:00:08;-1.70;99.90
41944;DHT22;27636;52.610;13.244;2022-11-20T21:05:13;-1.80;99.90
41944;DHT22;27636;52.610;13.244;2022-11-20T21:10:16;-2.00;99.90
41944;DHT22;27636;52.610;13.244;2022-11-20T21:15:25;-2.00;99.90
41944;DHT22;27636;52.610;13.244;2022-11-20T21:20:30;-2.10;99.90
41944;DHT22;27636;52.610;13.244;2022-11-20T21:25:52;-2.40;99.90
41944;DHT22;27636;52.610;13.244;2022-11-20T21:31:02;-2.60;99.90
41944;DHT22;27636;52.610;13.244;2022-11-20T21:36:08;-2.70;99.90
41944;DHT22;27636;52.610;13.244;2022-11-20T21:41:13;-2.60;99.90
41944;DHT22;27636;52.610;13.244;2022-11-20T21:46:16;-2.70;99.90
41944;DHT22;27636;52.610;13.244;2022-11-20T21:51:22;-2.70;99.90
41944;DHT22;27636;52.610;13.244;2022-11-20T21:56:26;-2.80;99.90
41944;DHT22;27636;52.610;13.244;2022-11-20T22:01:30;-2.80;99.90
41944;DHT22;27636;52.610;13.244;2022-11-20T22:06:34;-2.90;99.90
41944;DHT22;27636;52.610;13.244;2022-11-20T22:11:37;-3.00;99.90
41944;DHT22;27636;52.610;13.244;2022-11-20T22:16:41;-3.20;99.90
41944;DHT22;27636;52.610;13.244;2022-11-20T22:21:45;-3.10;99.90
41944;DHT22;27636;52.610;13.244;2022-11-20T22:26:49;-3.00;99.90
41944;DHT22;27636;52.610;13.244;2022-11-20T22:31:52;-2.90;99.90
41944;DHT22;27636;52.610;13.244;2022-11-20T22:36:57;-3.20;99.90
41944;DHT22;27636;52.610;13.244;2022-11-20T22:42:00;-3.40;99.90
41944;DHT22;27636;52.610;13.244;2022-11-20T22:47:03;-3.40;99.90
41944;DHT22;27636;52.610;13.244;2022-11-20T22:52:14;-3.40;99.90
41944;DHT22;27636;52.610;13.244;2022-11-20T22:57:17;-3.30;99.90
41944;DHT22;27636;52.610;13.244;2022-11-20T23:02:20;-3.30;99.90
41944;DHT22;27636;52.610;13.244;2022-11-20T23:07:25;-3.50;99.90
41944;DHT22;27636;52.610;13.244;2022-11-20T23:12:28;-3.50;99.90
41944;DHT22;27636;52.610;13.244;2022-11-20T23:17:32;-3.50;99.90
41944;DHT22;27636;52.610;13.244;2022-11-20T23:22:36;-3.40;99.90
41944;DHT22;27636;52.610;13.244;2022-11-20T23:27:40;-3.30;99.90
41944;DHT22;27636;52.610;13.244;2022-11-20T23:32:43;-3.20;99.90
41944;DHT22;27636;52.610;13.244;2022-11-20T23:37:47;-3.20;99.90
41944;DHT22;27636;52.610;13.244;2022-11-20T23:42:50;-3.10;99.90
41944;DHT22;27636;52.610;13.244;2022-11-20T23:48:12;-2.90;99.90
41944;DHT22;27636;52.610;13.244;2022-11-20T23:53:17;-2.70;99.90
41944;DHT22;27636;52.610;13.244;2022-11-20T23:58:22;-2.60;99.90
